Data for 07/20/2018

Time Sea-Level Adjusted Pressure Absolute Pressure Temperature Relative Humidity Dew Point   
(mb) (inHg) (mb) (inHg) (C) (F) (%) (C) (F)
00:05 1020 30.12 849 25.07 17.4 63.4 50 7 44.6
00:10 1020 30.12 849 25.07 17.1 62.8 51 7.1 44.8
00:15 1020 30.12 849 25.07 16.8 62.3 52 7 44.6
00:20 1020 30.12 849 25.07 16.8 62.2 53 7.3 45.2
00:25 1020 30.12 849 25.07 16.8 62.3 54 7.5 45.5
00:30 1020 30.12 849 25.07 16.8 62.3 54 7.6 45.8
00:35 1020 30.12 849 25.07 16.8 62.3 55 7.9 46.2
00:40 1020 30.12 849 25.07 16.6 61.8 56 7.9 46.2
00:45 1019 30.09 849 25.07 16.5 61.7 56 7.8 46.1
00:50 1019 30.09 849 25.07 16.4 61.5 57 7.8 46.1
00:55 1020 30.12 849 25.07 16.4 61.5 57 7.9 46.3
01:00 1020 30.12 849 25.07 16.2 61.2 56 7.6 45.7
01:05 1020 30.12 849 25.07 16.7 62 51 6.6 43.8
01:10 1020 30.12 849 25.07 17 62.6 52 7.1 44.7
01:15 1020 30.12 849 25.07 17.1 62.8 52 7.3 45.2
01:20 1020 30.12 849 25.07 16.9 62.4 54 7.7 45.9
01:25 1020 30.12 849 25.07 16.7 62.1 56 7.9 46.2
01:30 1020 30.12 849 25.07 16.6 61.9 56 7.8 46
01:35 1020 30.12 849 25.07 16.9 62.3 54 7.7 45.8
01:40 1020 30.12 849 25.07 17 62.6 54 7.8 46.1
01:45 1020 30.12 849 25.07 16.8 62.2 55 7.7 45.9
01:50 1020 30.12 849 25.07 16.9 62.4 54 7.6 45.8
01:55 1020 30.12 849 25.07 16.5 61.7 55 7.6 45.7
02:00 1020 30.12 849 25.07 16.3 61.3 56 7.7 45.9
02:05 1020 30.12 849 25.07 16 60.8 56 7.4 45.3
02:10 1020 30.12 849 25.07 15.9 60.5 55 6.9 44.4
02:15 1020 30.12 849 25.07 15.9 60.7 54 6.6 43.9
02:20 1020 30.12 849 25.07 16.2 61.2 53 6.7 44
02:25 1020 30.12 849 25.07 15.7 60.3 56 7 44.6
02:30 1020 30.12 849 25.07 15.5 59.9 58 7.4 45.3
02:35 1020 30.12 849 25.07 15.7 60.2 57 7.2 45
02:40 1020 30.12 849 25.07 15.7 60.2 58 7.5 45.6
02:45 1020 30.12 849 25.07 15.2 59.4 58 7 44.5
02:50 1020 30.12 849 25.07 14.8 58.6 57 6.4 43.6
02:55 1020 30.12 849 25.07 14.6 58.2 58 6.4 43.5
03:00 1020 30.12 849 25.07 15 59 56 6.4 43.6
03:05 1020 30.12 849 25.07 15.7 60.2 54 6.6 43.9
03:10 1020 30.12 849 25.07 15.6 60 56 6.8 44.3
03:15 1020 30.12 849 25.07 15.3 59.6 57 7 44.6
03:20 1020 30.12 849 25.07 14.9 58.8 60 7.3 45.2
03:25 1020 30.12 849 25.07 14.6 58.4 62 7.4 45.4
03:30 1020 30.12 849 25.07 14.6 58.3 62 7.4 45.3
03:35 1020 30.12 849 25.07 14.6 58.4 61 7.3 45.1
03:40 1020 30.12 849 25.07 14.8 58.7 61 7.4 45.3
03:45 1020 30.12 849 25.07 15 59.1 60 7.4 45.4
03:50 1020 30.12 849 25.07 15.1 59.3 60 7.5 45.5
03:55 1020 30.12 849 25.07 15.2 59.4 60 7.6 45.6
04:00 1020 30.12 849 25.07 15.1 59.1 61 7.7 45.8
04:05 1020 30.12 849 25.07 14.9 58.9 61 7.6 45.7
04:10 1020 30.12 849 25.07 14.9 58.9 61 7.6 45.7
04:15 1020 30.12 849 25.07 14.9 58.8 62 7.7 45.8
04:20 1020 30.12 849 25.07 14.8 58.6 62 7.5 45.5
04:25 1020 30.12 849 25.07 14.7 58.4 62 7.5 45.5
04:30 1020 30.12 850 25.1 14.7 58.5 61 7.4 45.3
04:35 1020 30.12 850 25.1 14.8 58.6 60 7.3 45.1
04:40 1020 30.12 850 25.1 14.8 58.6 59 7 44.7
04:45 1020 30.12 850 25.1 14.7 58.5 58 6.5 43.7
04:50 1020 30.12 850 25.1 14.6 58.3 56 6.1 43
04:55 1020 30.12 850 25.1 14.5 58 56 5.9 42.6
05:00 1021 30.15 850 25.1 14.4 57.9 56 5.8 42.5
05:05 1021 30.15 850 25.1 14.5 58.1 55 5.8 42.4
05:10 1021 30.15 850 25.1 14.5 58.2 56 6.1 42.9
05:15 1021 30.15 850 25.1 14.7 58.4 56 6.1 42.9
05:20 1021 30.15 850 25.1 15 58.9 57 6.7 44.1
05:25 1021 30.15 850 25.1 15.4 59.7 57 7 44.6
05:30 1021 30.15 850 25.1 15.3 59.5 54 6.1 43.1
05:35 1021 30.15 850 25.1 15 58.9 55 6.1 42.9
05:40 1021 30.15 850 25.1 15.1 59.2 57 6.7 44.1
05:45 1021 30.15 850 25.1 15.3 59.5 57 6.9 44.4
05:50 1021 30.15 850 25.1 15.3 59.6 55 6.4 43.5
05:55 1021 30.15 850 25.1 15.5 60 55 6.7 44
06:00 1021 30.15 850 25.1 15.7 60.2 56 6.9 44.5
06:05 1021 30.15 850 25.1 15.7 60.3 56 7.1 44.9
06:10 1021 30.15 850 25.1 15.8 60.4 56 7 44.6
06:15 1021 30.15 850 25.1 15.9 60.6 56 7.1 44.9
06:20 1021 30.15 850 25.1 16 60.8 56 7.2 45
06:25 1021 30.15 850 25.1 16.2 61.1 55 7.3 45.2
06:30 1021 30.15 850 25.1 16.4 61.6 56 7.7 45.8
06:35 1021 30.15 850 25.1 16.5 61.8 56 7.9 46.2
06:40 1021 30.15 850 25.1 16.6 61.9 56 8 46.3
06:45 1021 30.15 850 25.1 17 62.6 56 8.2 46.8
06:50 1021 30.15 850 25.1 17.2 63 56 8.6 47.4
06:55 1021 30.15 850 25.1 17.3 63.2 56 8.4 47.2
07:00 1021 30.15 850 25.1 17.5 63.5 56 8.8 47.9
07:05 1021 30.15 850 25.1 17.7 63.8 54 8.2 46.8
07:10 1021 30.15 850 25.1 17.9 64.3 51 7.8 46.1
07:15 1021 30.15 850 25.1 18.3 65 49 7.5 45.4
07:20 1021 30.15 850 25.1 18.4 65.1 51 8.3 46.9
07:25 1021 30.15 850 25.1 18.9 66 46 7 44.7
07:30 1021 30.15 851 25.13 19.5 67 45 7.2 45
07:35 1021 30.15 851 25.13 20.2 68.3 41 6.8 44.2
07:40 1021 30.15 851 25.13 20.7 69.2 41 7.1 44.8
07:45 1021 30.15 851 25.13 21.1 70 38 6.5 43.7
07:50 1021 30.15 851 25.13 21.4 70.5 38 6.6 43.9
07:55 1021 30.15 851 25.13 21.4 70.5 36 6 42.8
08:00 1021 30.15 851 25.13 21.3 70.4 38 6.5 43.8
08:05 1021 30.15 851 25.13 21.3 70.4 38 6.4 43.6
08:10 1021 30.15 851 25.13 21.5 70.6 37 6.4 43.6
08:15 1021 30.15 851 25.13 22 71.6 37 6.7 44.1
08:20 1021 30.15 851 25.13 22.3 72.1 32 5 41.1
08:25 1021 30.15 851 25.13 22.6 72.6 32 5.1 41.2
08:30 1021 30.15 851 25.13 22.4 72.3 32 5.2 41.3
08:35 1021 30.15 851 25.13 21.7 71 34 5.4 41.8
08:40 1021 30.15 851 25.13 21.4 70.4 34 5 41
08:45 1021 30.15 851 25.13 21.6 71 36 6.1 43
08:50 1021 30.15 850 25.1 21.8 71.3 36 6.3 43.3
08:55 1021 30.15 850 25.1 21.5 70.8 36 6.2 43.2
09:00 1021 30.15 850 25.1 22.2 71.9 34 6 42.7
09:05 1021 30.15 850 25.1 23.1 73.6 31 5.1 41.1
09:10 1021 30.15 850 25.1 23.7 74.7 31 6 42.7
09:15 1021 30.15 850 25.1 23.8 74.9 31 5.9 42.5
09:20 1021 30.15 850 25.1 24.2 75.6 30 6 42.7
09:25 1021 30.15 850 25.1 23.7 74.7 33 6.9 44.4
09:30 1021 30.15 850 25.1 23.9 75 32 6.3 43.3
09:35 1021 30.15 850 25.1 24.4 76 31 6.6 43.9
09:40 1021 30.15 850 25.1 24.8 76.7 31 6.7 44
09:45 1021 30.15 850 25.1 24.6 76.2 31 6.4 43.6
09:50 1021 30.15 850 25.1 24.6 76.2 31 6.8 44.2
09:55 1021 30.15 850 25.1 24.1 75.4 32 6.4 43.6
10:00 1021 30.15 850 25.1 24.9 76.9 30 6.6 43.8
10:05 1021 30.15 850 25.1 25.2 77.3 31 6.9 44.4
10:10 1021 30.15 850 25.1 24.9 76.8 31 6.7 44.1
10:15 1021 30.15 850 25.1 24.9 76.8 30 6.5 43.7
10:20 1021 30.15 850 25.1 24.8 76.6 30 6.3 43.3
10:25 1021 30.15 850 25.1 25.4 77.8 29 6.4 43.5
10:30 1021 30.15 850 25.1 26.4 79.5 27 6.3 43.4
10:35 1021 30.15 850 25.1 27.3 81.1 26 6.5 43.8
10:40 1021 30.15 850 25.1 27 80.6 30 8.2 46.7
10:45 1021 30.15 850 25.1 26.6 80 27 6.5 43.7
10:50 1021 30.15 850 25.1 27.4 81.2 28 7.4 45.3
10:55 1021 30.15 850 25.1 27.4 81.4 28 7.7 45.8
11:00 1021 30.15 850 25.1 27.2 81 26 6.2 43.2
11:05 1020 30.12 850 25.1 26.5 79.6 26 5.6 42.1
11:10 1020 30.12 850 25.1 26.9 80.5 26 6.1 43
11:15 1020 30.12 850 25.1 27.1 80.7 27 6.7 44.1
11:20 1020 30.12 850 25.1 27.4 81.3 25 5.8 42.4
11:25 1020 30.12 850 25.1 27.7 81.9 23 5.2 41.4
11:30 1020 30.12 850 25.1 28.6 83.5 20 3.6 38.5
11:35 1020 30.12 849 25.07 28.9 83.9 20 4.2 39.5
11:40 1020 30.12 849 25.07 29 84.2 18 3 37.3
11:45 1020 30.12 849 25.07 28.8 83.8 17 2 35.7
11:50 1020 30.12 849 25.07 28.9 84 13 -1.8 28.7
11:55 1020 30.12 849 25.07 29.6 85.2 12 -2.5 27.5
12:00 1020 30.12 849 25.07 28.9 84 12 -2.6 27.3
12:05 1020 30.12 849 25.07 29.1 84.3 13 -1.5 29.3
12:10 1020 30.12 849 25.07 29.8 85.6 13 -1 30.2
12:15 1020 30.12 849 25.07 29.3 84.7 12 -2.8 27
12:20 1020 30.12 849 25.07 29.2 84.5 13 -1.9 28.5
12:25 1020 30.12 849 25.07 30.5 86.9 13 -0.8 30.5
12:30 1020 30.12 849 25.07 30.4 86.7 13 -0.8 30.6
12:35 1020 30.12 849 25.07 31.1 88 12 -1 30.3
12:40 1020 30.12 849 25.07 31.1 88 12 -0.8 30.6
12:45 1020 30.12 849 25.07 31.3 88.3 12 -1.5 29.4
12:50 1019 30.09 849 25.07 31 87.7 12 -0.9 30.5
12:55 1019 30.09 849 25.07 30.1 86.3 12 -1.7 28.9
13:00 1019 30.09 849 25.07 30.3 86.5 13 -1 30.1
13:05 1019 30.09 848 25.04 30.8 87.4 12 -1.1 30.1
13:10 1019 30.09 848 25.04 30.7 87.3 12 -1.5 29.2
13:15 1019 30.09 848 25.04 30.4 86.8 11 -2.6 27.3
13:20 1019 30.09 848 25.04 30 86 12 -2.2 28
13:25 1019 30.09 848 25.04 30.1 86.2 13 -1.3 29.6
13:30 1019 30.09 848 25.04 30.3 86.6 12 -1.5 29.3
13:35 1019 30.09 848 25.04 29.8 85.6 13 -1.7 29
13:40 1019 30.09 848 25.04 29.5 85.2 13 -1.9 28.6
13:45 1019 30.09 848 25.04 29.7 85.5 13 -1.5 29.3
13:50 1019 30.09 848 25.04 29.5 85.1 14 -0.6 30.9
13:55 1019 30.09 848 25.04 29.5 85.1 13 -1.5 29.3
14:00 1019 30.09 848 25.04 29.6 85.4 12 -2.6 27.3
14:05 1019 30.09 848 25.04 30.8 87.5 11 -2.2 28
14:10 1019 30.09 848 25.04 31.8 89.3 11 -1.8 28.8
14:15 1019 30.09 848 25.04 31.7 89 11 -1.6 29.1
14:20 1019 30.09 848 25.04 31.5 88.8 11 -2.1 28.2
14:25 1019 30.09 848 25.04 31.5 88.6 12 -1.4 29.4
14:30 1019 30.09 848 25.04 31.9 89.4 10 -2.9 26.8
14:35 1019 30.09 848 25.04 31.7 89.1 11 -2.3 27.9
14:40 1019 30.09 848 25.04 32 89.6 11 -1.4 29.4
14:45 1019 30.09 848 25.04 32.2 89.9 11 -1.6 29
14:50 1018 30.06 848 25.04 31.9 89.4 12 -0.8 30.6
14:55 1018 30.06 848 25.04 31.2 88.2 10 -3.1 26.4
15:00 1018 30.06 848 25.04 30.5 86.9 11 -3.3 26
15:05 1018 30.06 848 25.04 31.3 88.3 12 -1.3 29.7
15:10 1018 30.06 848 25.04 31.6 88.8 12 -1.2 29.9
15:15 1018 30.06 848 25.04 31.4 88.6 12 -1.1 30.1
15:20 1018 30.06 847 25.01 31.5 88.7 12 -0.7 30.7
15:25 1018 30.06 847 25.01 31.6 88.9 10 -3.3 26
15:30 1018 30.06 848 25.04 31.8 89.3 11 -1.6 29
15:35 1018 30.06 847 25.01 32 89.6 11 -1.3 29.6
15:40 1018 30.06 847 25.01 31.7 89.1 11 -1.5 29.3
15:45 1018 30.06 847 25.01 31.8 89.2 11 -2.5 27.5
15:50 1018 30.06 847 25.01 31.8 89.2 11 -1.8 28.8
15:55 1018 30.06 847 25.01 31.8 89.2 11 -2.3 27.9
16:00 1018 30.06 847 25.01 31.5 88.7 11 -1.8 28.8
16:05 1018 30.06 847 25.01 31.4 88.5 11 -2.4 27.8
16:10 1018 30.06 847 25.01 30.7 87.2 11 -2.3 27.9
16:15 1018 30.06 847 25.01 30.5 86.8 12 -2.2 28
16:20 1018 30.06 847 25.01 30.7 87.3 11 -2.7 27.2
16:25 1018 30.06 847 25.01 30.7 87.3 11 -2.9 26.7
16:30 1018 30.06 847 25.01 30.5 87 11 -2.6 27.3
16:35 1018 30.06 847 25.01 31 87.9 10 -3.4 25.9
16:40 1018 30.06 847 25.01 30.8 87.5 11 -2.5 27.4
16:45 1018 30.06 847 25.01 30.8 87.4 12 -1.9 28.6
16:50 1018 30.06 847 25.01 30.5 86.9 11 -2.6 27.4
16:55 1018 30.06 847 25.01 30.9 87.6 11 -2.7 27.1
17:00 1018 30.06 847 25.01 30.8 87.4 12 -1.8 28.7
17:05 1018 30.06 847 25.01 30.6 87.1 11 -3.2 26.2
17:10 1018 30.06 847 25.01 30.1 86.2 11 -3.1 26.5
17:15 1018 30.06 847 25.01 30.2 86.3 11 -3.1 26.5
17:20 1018 30.06 847 25.01 30.4 86.7 12 -2.4 27.6
17:25 1018 30.06 847 25.01 30.8 87.4 11 -2.8 26.9
17:30 1018 30.06 847 25.01 31 87.8 11 -2.1 28.2
17:35 1018 30.06 847 25.01 30.9 87.6 11 -2.3 27.8
17:40 1018 30.06 847 25.01 31 87.9 11 -3 26.5
17:45 1018 30.06 847 25.01 30.7 87.2 11 -2.7 27.2
17:50 1017 30.03 847 25.01 30.6 87.1 11 -3.1 26.5
17:55 1017 30.03 847 25.01 30.2 86.4 12 -2.5 27.4
18:00 1017 30.03 847 25.01 30 85.9 11 -3.4 25.8
18:05 1017 30.03 847 25.01 30 86 12 -2 28.3
18:10 1017 30.03 847 25.01 30.1 86.3 11 -3.7 25.3
18:15 1017 30.03 847 25.01 30.3 86.6 10 -4.5 23.9
18:20 1017 30.03 847 25.01 30.5 86.9 11 -2.6 27.3
18:25 1017 30.03 847 25.01 30.2 86.3 12 -2.4 27.7
18:30 1017 30.03 847 25.01 29.7 85.5 12 -2.8 26.9
18:35 1017 30.03 847 25.01 29.5 85.1 13 -1 30.3
18:40 1017 30.03 846 24.98 29.1 84.5 14 -0.8 30.6
18:45 1017 30.03 847 25.01 29 84.2 13 -1.6 29.1
18:50 1017 30.03 846 24.98 29 84.3 13 -1.6 29.1
18:55 1017 30.03 846 24.98 29.1 84.3 13 -2 28.4
19:00 1017 30.03 846 24.98 29 84.3 13 -1.7 29
19:05 1017 30.03 846 24.98 29 84.1 14 -1.2 29.9
19:10 1017 30.03 846 24.98 28.8 83.8 14 -1.2 29.9
19:15 1017 30.03 847 25.01 28.7 83.6 15 0.2 32.3
19:20 1017 30.03 847 25.01 28.2 82.8 20 3.5 38.4
19:25 1017 30.03 846 24.98 27.7 81.9 20 3 37.4
19:30 1017 30.03 846 24.98 27.6 81.7 18 1.6 34.8
19:35 1017 30.03 846 24.98 27.3 81.2 19 2.1 35.9
19:40 1017 30.03 847 25.01 26.7 80 21 3 37.4
19:45 1017 30.03 847 25.01 26.2 79.2 23 3.5 38.3
19:50 1017 30.03 847 25.01 25.8 78.4 26 5.3 41.5
19:55 1017 30.03 847 25.01 25.1 77.2 27 5 41
20:00 1017 30.03 847 25.01 24.6 76.2 24 3 37.4
20:05 1017 30.03 847 25.01 24.5 76.1 25 3.2 37.8
20:10 1017 30.03 847 25.01 24.1 75.4 26 3.7 38.6
20:15 1017 30.03 847 25.01 23.9 75 25 3 37.3
20:20 1017 30.03 847 25.01 24 75.3 23 2.1 35.7
20:25 1017 30.03 847 25.01 24.2 75.5 24 2.3 36.2
20:30 1017 30.03 847 25.01 24.1 75.4 22 1.3 34.4
20:35 1017 30.03 847 25.01 24.4 76 22 1.5 34.8
20:40 1017 30.03 847 25.01 24.5 76 21 1.1 34.1
20:45 1017 30.03 847 25.01 24.6 76.2 21 1 33.8
20:50 1018 30.06 847 25.01 24.6 76.2 21 1.4 34.5
20:55 1017 30.03 847 25.01 24.3 75.8 22 1.5 34.7
21:00 1018 30.06 847 25.01 24.2 75.5 21 1 33.8
21:05 1017 30.03 847 25.01 24.3 75.8 21 0.5 33
21:10 1018 30.06 847 25.01 24.6 76.3 20 0.7 33.2
21:15 1018 30.06 847 25.01 24.6 76.2 21 0.9 33.7
21:20 1018 30.06 847 25.01 24.5 76.1 21 0.8 33.4
21:25 1018 30.06 847 25.01 24.4 76 21 0.8 33.4
21:30 1018 30.06 847 25.01 24.2 75.5 22 1.6 34.9
21:35 1018 30.06 847 25.01 23.6 74.6 22 1 33.9
21:40 1018 30.06 847 25.01 23.7 74.7 22 1 33.8
21:45 1018 30.06 847 25.01 23.6 74.4 22 1.1 34
21:50 1018 30.06 847 25.01 23.7 74.6 23 1.3 34.4
21:55 1018 30.06 847 25.01 23.7 74.6 23 1.8 35.3
22:00 1018 30.06 847 25.01 23.2 73.7 25 2.3 36.2
22:05 1017 30.03 847 25.01 22.7 72.9 26 2.2 36
22:10 1017 30.03 847 25.01 22.7 72.8 26 2.3 36.1
22:15 1017 30.03 847 25.01 22.5 72.5 26 2.5 36.5
22:20 1017 30.03 847 25.01 22.6 72.6 26 2.2 36
22:25 1017 30.03 847 25.01 22.7 72.8 26 2.7 36.8
22:30 1017 30.03 846 24.98 22.5 72.5 26 2.3 36.2
22:35 1017 30.03 847 25.01 22.5 72.4 27 2.7 36.8
22:40 1017 30.03 846 24.98 22.2 72 27 2.6 36.7
22:45 1017 30.03 846 24.98 22 71.7 28 2.7 36.9
22:50 1017 30.03 846 24.98 21.7 71.1 28 2.6 36.7
22:55 1017 30.03 846 24.98 21.6 70.8 28 2.6 36.7
23:00 1017 30.03 846 24.98 21.7 71.1 28 2.5 36.6
23:05 1017 30.03 846 24.98 21.9 71.4 28 2.8 37.1
23:10 1017 30.03 846 24.98 21.9 71.5 28 2.9 37.2
23:15 1017 30.03 846 24.98 21.9 71.4 29 3.1 37.5
23:20 1017 30.03 847 25.01 21.6 70.9 30 3.3 38
23:25 1017 30.03 847 25.01 21 69.8 31 3.3 38
23:30 1017 30.03 847 25.01 20.6 69 32 3.4 38.1
23:35 1017 30.03 847 25.01 20.3 68.5 31 2.7 36.8
23:40 1017 30.03 847 25.01 20.4 68.7 30 2.5 36.5
23:45 1018 30.06 847 25.01 20.3 68.6 31 3 37.3
23:50 1018 30.06 847 25.01 20.2 68.3 32 3 37.4
23:55 1018 30.06 847 25.01 20.1 68.1 32 3 37.4
24:00 1018 30.06 847 25.01 20 68 31 2.5 36.5